Аэропорт: Бегишево. Набережные Челны, Нижнекамск

ICAO: UWKE

METAR:
2019-11-21 09:00:00
UWKE 210900Z 24003MPS CAVOK M12/M17 Q1049 R21/310050 NOSIG RMK QFE769/1025
METAR:
2019-11-21 07:45:00
TAF UWKE 210745Z 2109/2209 23003G08MPS 9999 FEW020 TEMPO 2109/2115 27003G08MPS TEMPO 2115/2209 3100 BR BKN011